Time;durP1;ratioP1;P1;durP2;ratioP2;P2;SDS_P1;SDS_P2;PMS_P1;PMS_P2;Temp;Humidity;BMP_temperature;BMP_pressure;BME280_temperature;BME280_humidity;BME280_pressure;Samples;Min_cycle;Max_cycle;Signal;HPM_P1;HPM_P2
2020/02/10 00:00:32;;;;;;;4.05;2.900001;;;;;;;8.11;42.62012;94127.15;;;;
2020/02/10 00:07:00;;;;;;;5.1;3;;;;;;;8.05;43.00098;94128.55;;;;
2020/02/10 00:08:03;;;;;;;3.3;2.75;;;;;;;8.02;43.10449;94124.61;;;;
2020/02/10 00:09:07;;;;;;;3.3;2.75;;;;;;;8.02;43.10449;94124.61;;;;
2020/02/10 00:11:47;;;;;;;3.3;2.75;;;;;;;8.02;43.10449;94124.61;;;;
2020/02/10 00:13:07;;;;;;;3.3;2.75;;;;;;;8.02;43.10449;94124.61;;;;
2020/02/10 00:14:11;;;;;;;3.3;2.75;;;;;;;8.02;43.10449;94124.61;;;;
2020/02/10 00:15:19;;;;;;;3.3;2.75;;;;;;;8.02;43.10449;94124.61;;;;
2020/02/10 00:16:37;;;;;;;3.3;2.75;;;;;;;8.02;43.10449;94124.61;;;;
2020/02/10 00:19:06;;;;;;;5.7;3;;;;;;;7.61;42.97852;94104.02;;;;
2020/02/10 00:20:18;;;;;;;5.7;3;;;;;;;7.61;42.97852;94104.02;;;;
2020/02/10 00:21:21;;;;;;;4.9;2.8;;;;;;;7.59;43.58789;94106.92;;;;
2020/02/10 00:24:06;;;;;;;4.900001;3.1;;;;;;;7.65;43.87109;94099.34;;;;
2020/02/10 00:26:08;;;;;;;6.349999;3.25;;;;;;;7.72;44.05078;94097.71;;;;
2020/02/10 00:27:08;;;;;;;6.349999;3.25;;;;;;;7.72;44.05078;94097.71;;;;
2020/02/10 00:28:09;;;;;;;6.349999;3.25;;;;;;;7.72;44.05078;94097.71;;;;
2020/02/10 00:29:11;;;;;;;6.349999;3.25;;;;;;;7.72;44.05078;94097.71;;;;
2020/02/10 00:30:16;;;;;;;6.349999;3.25;;;;;;;7.72;44.05078;94097.71;;;;
2020/02/10 00:31:24;;;;;;;6.349999;3.25;;;;;;;7.72;44.05078;94097.71;;;;
2020/02/10 00:32:27;;;;;;;6.349999;3.25;;;;;;;7.72;44.05078;94097.71;;;;
2020/02/10 00:33:28;;;;;;;6.349999;3.25;;;;;;;7.72;44.05078;94097.71;;;;
2020/02/10 00:34:29;;;;;;;6.349999;3.25;;;;;;;7.72;44.05078;94097.71;;;;
2020/02/10 00:35:29;;;;;;;6.349999;3.25;;;;;;;7.72;44.05078;94097.71;;;;
2020/02/10 00:36:30;;;;;;;4.3;2.900001;;;;;;;7.67;43.55273;94053.72;;;;
2020/02/10 00:37:51;;;;;;;4.3;2.900001;;;;;;;7.67;43.55273;94053.72;;;;
2020/02/10 00:39:17;;;;;;;4.15;2.7;;;;;;;7.73;43.63379;94032.59;;;;
2020/02/10 00:40:56;;;;;;;4.15;2.7;;;;;;;7.73;43.63379;94032.59;;;;
2020/02/10 00:41:57;;;;;;;4.15;2.7;;;;;;;7.73;43.63379;94032.59;;;;
2020/02/10 00:42:57;;;;;;;4.15;2.7;;;;;;;7.73;43.63379;94032.59;;;;
2020/02/10 00:44:22;;;;;;;4.15;2.7;;;;;;;7.73;43.63379;94032.59;;;;
2020/02/10 00:45:26;;;;;;;4.15;2.7;;;;;;;7.73;43.63379;94032.59;;;;
2020/02/10 00:46:29;;;;;;;4.15;2.7;;;;;;;7.73;43.63379;94032.59;;;;
2020/02/10 00:47:37;;;;;;;4.15;2.7;;;;;;;7.73;43.63379;94032.59;;;;
2020/02/10 00:49:20;;;;;;;4.15;2.7;;;;;;;7.73;43.63379;94032.59;;;;
2020/02/10 00:50:21;;;;;;;3.6;2.75;;;;;;;7.95;43.16211;94002.48;;;;
2020/02/10 00:51:22;;;;;;;3.6;2.75;;;;;;;7.95;43.16211;94002.48;;;;
2020/02/10 00:52:23;;;;;;;3.8;2.55;;;;;;;8.06;43.23828;94022.64;;;;
2020/02/10 00:53:24;;;;;;;3.8;2.55;;;;;;;8.06;43.23828;94022.64;;;;
2020/02/10 00:54:27;;;;;;;3.8;2.55;;;;;;;8.06;43.23828;94022.64;;;;
2020/02/10 00:55:28;;;;;;;4.349999;2.75;;;;;;;8.21;43.12402;94033.98;;;;
2020/02/10 00:56:28;;;;;;;4.349999;2.75;;;;;;;8.21;43.12402;94033.98;;;;
2020/02/10 00:57:31;;;;;;;4.25;2.900001;;;;;;;8.36;43.01074;94036.47;;;;
2020/02/10 00:58:31;;;;;;;4.25;2.900001;;;;;;;8.36;43.01074;94036.47;;;;
2020/02/10 00:59:32;;;;;;;4.25;2.900001;;;;;;;8.36;43.01074;94036.47;;;;
2020/02/10 01:00:34;;;;;;;3.85;2.55;;;;;;;8.53;42.82227;94037.33;;;;
2020/02/10 01:03:47;;;;;;;5.25;2.45;;;;;;;8.67;42.67578;94034.36;;;;
2020/02/10 01:05:23;;;;;;;5.25;2.45;;;;;;;8.67;42.67578;94034.36;;;;
2020/02/10 01:06:37;;;;;;;5.25;2.45;;;;;;;8.67;42.67578;94034.36;;;;
2020/02/10 01:07:40;;;;;;;5.25;2.45;;;;;;;8.67;42.67578;94034.36;;;;
2020/02/10 01:08:56;;;;;;;5.25;2.45;;;;;;;8.67;42.67578;94034.36;;;;
2020/02/10 01:10:18;;;;;;;5.25;2.45;;;;;;;8.67;42.67578;94034.36;;;;
2020/02/10 01:11:52;;;;;;;5.25;2.45;;;;;;;8.67;42.67578;94034.36;;;;
2020/02/10 01:13:01;;;;;;;5.25;2.45;;;;;;;8.67;42.67578;94034.36;;;;
2020/02/10 01:14:25;;;;;;;3.15;2.15;;;;;;;8.85;42.47754;94017.43;;;;
2020/02/10 01:15:30;;;;;;;3.15;2.15;;;;;;;8.85;42.47754;94017.43;;;;
2020/02/10 01:16:40;;;;;;;2.75;2.2;;;;;;;9.02;42.55859;93994.02;;;;
2020/02/10 01:17:47;;;;;;;2.75;2.2;;;;;;;9.02;42.55859;93994.02;;;;
2020/02/10 01:18:52;;;;;;;2.35;2.05;;;;;;;9.26;42.58203;93985.33;;;;
2020/02/10 01:20:01;;;;;;;2.35;2.05;;;;;;;9.26;42.58203;93985.33;;;;
2020/02/10 01:21:05;;;;;;;2.35;2.05;;;;;;;9.26;42.58203;93985.33;;;;
2020/02/10 01:22:09;;;;;;;3.65;2;;;;;;;9.53;42.52344;93969.05;;;;
2020/02/10 01:23:17;;;;;;;3.65;2;;;;;;;9.53;42.52344;93969.05;;;;
2020/02/10 01:24:23;;;;;;;3.65;2;;;;;;;9.53;42.52344;93969.05;;;;
2020/02/10 01:25:38;;;;;;;3.65;2;;;;;;;9.53;42.52344;93969.05;;;;
2020/02/10 01:28:52;;;;;;;3.65;2;;;;;;;9.53;42.52344;93969.05;;;;
2020/02/10 01:29:56;;;;;;;3.65;2;;;;;;;9.53;42.52344;93969.05;;;;
2020/02/10 01:31:23;;;;;;;3.65;2;;;;;;;9.53;42.52344;93969.05;;;;
2020/02/10 01:32:32;;;;;;;2.6;1.5;;;;;;;10.17;42.69336;93950.61;;;;
2020/02/10 01:33:45;;;;;;;2.6;1.5;;;;;;;10.17;42.69336;93950.61;;;;
2020/02/10 01:34:47;;;;;;;2;1.4;;;;;;;10.43;43.41016;93937.99;;;;
2020/02/10 01:35:57;;;;;;;2;1.4;;;;;;;10.43;43.41016;93937.99;;;;
2020/02/10 01:36:58;;;;;;;2;1.4;;;;;;;10.43;43.41016;93937.99;;;;
2020/02/10 01:37:59;;;;;;;1.9;1.4;;;;;;;10.77;43.69141;93918.03;;;;
2020/02/10 01:39:08;;;;;;;1.9;1.4;;;;;;;10.77;43.69141;93918.03;;;;
2020/02/10 01:40:46;;;;;;;1.65;1.4;;;;;;;11.08;43.93945;93911.39;;;;
2020/02/10 01:45:50;;;;;;;2.2;1.5;;;;;;;11.65;43.91016;93888.58;;;;
2020/02/10 01:46:57;;;;;;;2.2;1.5;;;;;;;11.65;43.91016;93888.58;;;;
2020/02/10 01:47:58;;;;;;;2.2;1.5;;;;;;;11.65;43.91016;93888.58;;;;
2020/02/10 01:49:18;;;;;;;2.2;1.5;;;;;;;11.65;43.91016;93888.58;;;;
2020/02/10 01:50:31;;;;;;;2.2;1.5;;;;;;;11.65;43.91016;93888.58;;;;
2020/02/10 01:51:33;;;;;;;2.2;1.5;;;;;;;11.65;43.91016;93888.58;;;;
2020/02/10 01:52:43;;;;;;;2.2;1.5;;;;;;;11.65;43.91016;93888.58;;;;
2020/02/10 01:53:56;;;;;;;2.2;1.5;;;;;;;11.65;43.91016;93888.58;;;;
2020/02/10 01:54:58;;;;;;;2.2;1.5;;;;;;;11.65;43.91016;93888.58;;;;
2020/02/10 01:56:07;;;;;;;1.8;1.5;;;;;;;12.16;43.2998;93931.51;;;;
2020/02/10 01:57:08;;;;;;;1.8;1.5;;;;;;;12.16;43.2998;93931.51;;;;
2020/02/10 01:58:10;;;;;;;1.8;1.5;;;;;;;12.16;43.2998;93931.51;;;;
2020/02/10 01:59:21;;;;;;;2.1;1.5;;;;;;;12.31;43.47754;93916.93;;;;
2020/02/10 02:00:30;;;;;;;2.1;1.5;;;;;;;12.31;43.47754;93916.93;;;;
2020/02/10 02:01:54;;;;;;;2.1;1.5;;;;;;;12.31;43.47754;93916.93;;;;
2020/02/10 02:03:14;;;;;;;2.1;1.5;;;;;;;12.31;43.47754;93916.93;;;;
2020/02/10 02:04:59;;;;;;;2.1;1.5;;;;;;;12.31;43.47754;93916.93;;;;
2020/02/10 02:06:32;;;;;;;2.1;1.5;;;;;;;12.31;43.47754;93916.93;;;;
2020/02/10 02:08:03;;;;;;;2.1;1.5;;;;;;;12.31;43.47754;93916.93;;;;
2020/02/10 02:09:38;;;;;;;2;1.6;;;;;;;12.63;43.12988;93898.3;;;;
2020/02/10 02:11:14;;;;;;;2;1.6;;;;;;;12.63;43.12988;93898.3;;;;
2020/02/10 02:12:53;;;;;;;2.25;1.65;;;;;;;12.73;43.33594;93896.89;;;;
2020/02/10 02:14:08;;;;;;;2.25;1.65;;;;;;;12.73;43.33594;93896.89;;;;
2020/02/10 02:15:33;;;;;;;2.25;1.65;;;;;;;12.73;43.33594;93896.89;;;;
2020/02/10 02:16:48;;;;;;;2.25;1.65;;;;;;;12.73;43.33594;93896.89;;;;
2020/02/10 02:17:56;;;;;;;2.25;1.65;;;;;;;12.73;43.33594;93896.89;;;;
2020/02/10 02:19:03;;;;;;;2.25;1.65;;;;;;;12.73;43.33594;93896.89;;;;
2020/02/10 02:20:22;;;;;;;2.25;1.65;;;;;;;12.73;43.33594;93896.89;;;;
2020/02/10 02:22:08;;;;;;;2.05;1.5;;;;;;;12.94;42.96582;93877.61;;;;
2020/02/10 02:23:25;;;;;;;2.05;1.5;;;;;;;12.94;42.96582;93877.61;;;;
2020/02/10 02:24:51;;;;;;;1.7;1.4;;;;;;;13.03;43.10449;93862.92;;;;
2020/02/10 02:26:13;;;;;;;1.7;1.4;;;;;;;13.03;43.10449;93862.92;;;;
2020/02/10 02:35:44;;;;;;;2.75;1.4;;;;;;;13.31;43.08789;93857.64;;;;
2020/02/10 02:42:48;;;;;;;1.35;1.25;;;;;;;13.34;43.03613;93819.1;;;;
2020/02/10 02:44:11;;;;;;;1.4;1.3;;;;;;;13.41;43.57715;93834.34;;;;
2020/02/10 02:45:15;;;;;;;1.4;1.3;;;;;;;13.41;43.57715;93834.34;;;;
2020/02/10 02:46:31;;;;;;;1.4;1.3;;;;;;;13.41;43.57715;93834.34;;;;
2020/02/10 02:47:38;;;;;;;1.4;1.3;;;;;;;13.41;43.57715;93834.34;;;;
2020/02/10 02:48:44;;;;;;;1.4;1.3;;;;;;;13.41;43.57715;93834.34;;;;
2020/02/10 02:49:47;;;;;;;1.4;1.3;;;;;;;13.41;43.57715;93834.34;;;;
2020/02/10 02:50:57;;;;;;;1.4;1.3;;;;;;;13.41;43.57715;93834.34;;;;
2020/02/10 02:52:04;;;;;;;1.4;1.3;;;;;;;13.41;43.57715;93834.34;;;;
2020/02/10 02:53:09;;;;;;;1.4;1.3;;;;;;;13.41;43.57715;93834.34;;;;
2020/02/10 02:54:14;;;;;;;2;1.4;;;;;;;13.56;43.5918;93827.94;;;;
2020/02/10 02:55:30;;;;;;;2;1.4;;;;;;;13.56;43.5918;93827.94;;;;
2020/02/10 02:57:05;;;;;;;1.7;1.2;;;;;;;13.65;43.87305;93812.06;;;;
2020/02/10 02:58:13;;;;;;;1.7;1.2;;;;;;;13.65;43.87305;93812.06;;;;
2020/02/10 02:59:19;;;;;;;2.4;1.35;;;;;;;13.79;44.03809;93805.8;;;;
2020/02/10 03:00:21;;;;;;;2.4;1.35;;;;;;;13.79;44.03809;93805.8;;;;
2020/02/10 03:05:28;;;;;;;1.6;1.2;;;;;;;13.91;44.21387;93801.7;;;;
2020/02/10 03:07:35;;;;;;;1.6;1.2;;;;;;;13.91;44.21387;93801.7;;;;
2020/02/10 03:08:42;;;;;;;1.6;1.2;;;;;;;13.91;44.21387;93801.7;;;;
2020/02/10 03:10:53;;;;;;;1.6;1.2;;;;;;;13.91;44.21387;93801.7;;;;
2020/02/10 03:12:06;;;;;;;1.6;1.2;;;;;;;13.91;44.21387;93801.7;;;;
2020/02/10 03:13:20;;;;;;;1.65;1.05;;;;;;;14.28;45.77539;93792.38;;;;
2020/02/10 03:15:50;;;;;;;1.25;1.15;;;;;;;14.43;46.19434;93779.77;;;;
2020/02/10 03:16:58;;;;;;;1.25;1.15;;;;;;;14.43;46.19434;93779.77;;;;
2020/02/10 03:18:15;;;;;;;1.25;1.15;;;;;;;14.43;46.19434;93779.77;;;;
2020/02/10 03:19:38;;;;;;;1.25;1.15;;;;;;;14.43;46.19434;93779.77;;;;
2020/02/10 03:20:53;;;;;;;1.25;1.15;;;;;;;14.43;46.19434;93779.77;;;;
2020/02/10 03:22:28;;;;;;;1.25;1.15;;;;;;;14.43;46.19434;93779.77;;;;
2020/02/10 03:23:35;;;;;;;1.25;1.15;;;;;;;14.43;46.19434;93779.77;;;;
2020/02/10 03:24:42;;;;;;;1.25;1.15;;;;;;;14.43;46.19434;93779.77;;;;
2020/02/10 03:25:51;;;;;;;2.35;1;;;;;;;14.63;45.83301;93741.55;;;;
2020/02/10 03:26:59;;;;;;;2.35;1;;;;;;;14.63;45.83301;93741.55;;;;
2020/02/10 03:28:13;;;;;;;2.65;1.2;;;;;;;14.7;45.97168;93738.7;;;;
2020/02/10 03:29:19;;;;;;;2.65;1.2;;;;;;;14.7;45.97168;93738.7;;;;
2020/02/10 03:30:23;;;;;;;2.65;1.2;;;;;;;14.7;45.97168;93738.7;;;;
2020/02/10 03:32:02;;;;;;;1.2;1.1;;;;;;;14.81;46.02637;93747.89;;;;
2020/02/10 03:33:05;;;;;;;1.2;1.1;;;;;;;14.81;46.02637;93747.89;;;;
2020/02/10 03:34:10;;;;;;;1.55;1.1;;;;;;;14.94;45.91992;93727.26;;;;
2020/02/10 03:35:16;;;;;;;1.55;1.1;;;;;;;14.94;45.91992;93727.26;;;;
2020/02/10 03:36:23;;;;;;;2.2;1.2;;;;;;;15.06;45.73633;93750.14;;;;
2020/02/10 03:37:32;;;;;;;2.2;1.2;;;;;;;15.06;45.73633;93750.14;;;;
2020/02/10 03:38:34;;;;;;;2.2;1.2;;;;;;;15.06;45.73633;93750.14;;;;
2020/02/10 03:40:00;;;;;;;4.2;1.2;;;;;;;15.16;45.64941;93781.23;;;;
2020/02/10 03:41:43;;;;;;;4.2;1.2;;;;;;;15.16;45.64941;93781.23;;;;
2020/02/10 03:43:34;;;;;;;4.2;1.2;;;;;;;15.16;45.64941;93781.23;;;;
2020/02/10 03:44:42;;;;;;;4.2;1.2;;;;;;;15.16;45.64941;93781.23;;;;
2020/02/10 03:45:53;;;;;;;4.2;1.2;;;;;;;15.16;45.64941;93781.23;;;;
2020/02/10 03:46:54;;;;;;;4.2;1.2;;;;;;;15.16;45.64941;93781.23;;;;
2020/02/10 03:47:55;;;;;;;4.2;1.2;;;;;;;15.16;45.64941;93781.23;;;;
2020/02/10 03:48:58;;;;;;;4.2;1.2;;;;;;;15.16;45.64941;93781.23;;;;
2020/02/10 03:50:34;;;;;;;4.45;1.6;;;;;;;15.04;45.64746;93764.98;;;;
2020/02/10 03:51:42;;;;;;;4.45;1.6;;;;;;;15.04;45.64746;93764.98;;;;
2020/02/10 03:52:43;;;;;;;2.4;1.15;;;;;;;15.04;46.06152;93748.67;;;;
2020/02/10 03:53:43;;;;;;;2.4;1.15;;;;;;;15.04;46.06152;93748.67;;;;
2020/02/10 03:55:08;;;;;;;2.4;1.15;;;;;;;15.04;46.06152;93748.67;;;;
2020/02/10 03:56:33;;;;;;;2.4;1.15;;;;;;;15.04;46.06152;93748.67;;;;
2020/02/10 03:57:34;;;;;;;2.4;1.15;;;;;;;15.04;46.06152;93748.67;;;;
2020/02/10 03:58:35;;;;;;;2.4;1.15;;;;;;;15.04;46.06152;93748.67;;;;
2020/02/10 03:59:43;;;;;;;2.4;1.15;;;;;;;15.04;46.06152;93748.67;;;;
2020/02/10 04:00:51;;;;;;;2.4;1.15;;;;;;;15.04;46.06152;93748.67;;;;
2020/02/10 04:02:44;;;;;;;1.45;1.3;;;;;;;14.87;46.7627;93706.89;;;;
2020/02/10 04:04:18;;;;;;;1.45;1.3;;;;;;;14.87;46.7627;93706.89;;;;
2020/02/10 04:05:32;;;;;;;1.6;1.2;;;;;;;14.87;47.20898;93702.4;;;;
2020/02/10 04:10:45;;;;;;;1.6;1.2;;;;;;;14.87;47.20898;93702.4;;;;
2020/02/10 04:11:52;;;;;;;1.6;1.2;;;;;;;14.87;47.20898;93702.4;;;;
2020/02/10 04:12:58;;;;;;;1.6;1.2;;;;;;;14.87;47.20898;93702.4;;;;
2020/02/10 04:13:59;;;;;;;1.6;1.2;;;;;;;14.87;47.20898;93702.4;;;;
2020/02/10 04:15:00;;;;;;;1.6;1.2;;;;;;;14.87;47.20898;93702.4;;;;
2020/02/10 04:16:44;;;;;;;1.2;1.1;;;;;;;14.65;47.92676;93702.67;;;;
2020/02/10 04:17:51;;;;;;;1.2;1.1;;;;;;;14.65;47.92676;93702.67;;;;
2020/02/10 04:20:01;;;;;;;1.95;1.15;;;;;;;14.65;48.35156;93676.86;;;;
2020/02/10 04:21:38;;;;;;;1.95;1.15;;;;;;;14.65;48.35156;93676.86;;;;
2020/02/10 04:22:48;;;;;;;1.95;1.15;;;;;;;14.65;48.35156;93676.86;;;;
2020/02/10 04:24:01;;;;;;;1.95;1.15;;;;;;;14.65;48.35156;93676.86;;;;
2020/02/10 04:25:40;;;;;;;1.95;1.15;;;;;;;14.65;48.35156;93676.86;;;;
2020/02/10 04:32:01;;;;;;;2.85;1.1;;;;;;;14.42;49.52148;93670.09;;;;
2020/02/10 04:33:13;;;;;;;2.85;1.1;;;;;;;14.42;49.52148;93670.09;;;;
2020/02/10 04:34:28;;;;;;;2.85;1.1;;;;;;;14.42;49.52148;93670.09;;;;
2020/02/10 04:36:41;;;;;;;2.85;1.1;;;;;;;14.42;49.52148;93670.09;;;;
2020/02/10 04:37:57;;;;;;;2.85;1.1;;;;;;;14.42;49.52148;93670.09;;;;
2020/02/10 04:39:06;;;;;;;2.85;1.1;;;;;;;14.42;49.52148;93670.09;;;;
2020/02/10 04:41:29;;;;;;;2.85;1.1;;;;;;;14.42;49.52148;93670.09;;;;
2020/02/10 04:42:32;;;;;;;1.1;1;;;;;;;14.25;50.20898;93686.5;;;;
2020/02/10 04:43:33;;;;;;;1.1;1;;;;;;;14.25;50.20898;93686.5;;;;
2020/02/10 04:44:34;;;;;;;1.1;1;;;;;;;14.25;50.20898;93686.5;;;;
2020/02/10 04:45:34;;;;;;;1.1;1;;;;;;;14.25;50.20898;93686.5;;;;
2020/02/10 04:46:35;;;;;;;1.1;1;;;;;;;14.25;50.20898;93686.5;;;;
2020/02/10 04:47:35;;;;;;;1.1;1;;;;;;;14.25;50.20898;93686.5;;;;
2020/02/10 04:48:36;;;;;;;1.1;1;;;;;;;14.25;50.20898;93686.5;;;;
2020/02/10 04:49:36;;;;;;;1.1;1;;;;;;;14.25;50.20898;93686.5;;;;
2020/02/10 04:50:37;;;;;;;1.1;1;;;;;;;14.25;50.20898;93686.5;;;;
2020/02/10 04:51:38;;;;;;;1.1;1;;;;;;;14.25;50.20898;93686.5;;;;
2020/02/10 04:52:38;;;;;;;1.1;1;;;;;;;14.25;50.20898;93686.5;;;;
2020/02/10 04:53:39;;;;;;;1.1;1;;;;;;;14.21;50.37891;93684.15;;;;
2020/02/10 04:54:39;;;;;;;1.1;1;;;;;;;14.21;50.37891;93684.15;;;;
2020/02/10 04:55:40;;;;;;;1.1;1;;;;;;;14.21;50.37891;93684.15;;;;
2020/02/10 04:56:41;;;;;;;1.1;1;;;;;;;14.21;50.37891;93684.15;;;;
2020/02/10 04:57:42;;;;;;;1.1;1;;;;;;;14.21;50.37891;93684.15;;;;
2020/02/10 04:58:42;;;;;;;1.1;1;;;;;;;14.21;50.37891;93684.15;;;;
2020/02/10 04:59:43;;;;;;;1.1;1;;;;;;;14.21;50.37891;93684.15;;;;
2020/02/10 05:00:43;;;;;;;1.1;1;;;;;;;14.21;50.37891;93684.15;;;;
2020/02/10 05:01:50;;;;;;;1.1;1;;;;;;;14.21;50.37891;93684.15;;;;
2020/02/10 05:03:21;;;;;;;1.2;1;;;;;;;14.11;50.51953;93664.89;;;;
2020/02/10 05:04:34;;;;;;;1.2;1;;;;;;;14.11;50.51953;93664.89;;;;
2020/02/10 05:05:35;;;;;;;1.2;1;;;;;;;14.11;50.51953;93664.89;;;;
2020/02/10 05:06:35;;;;;;;1.85;1;;;;;;;14.17;50.5918;93674.98;;;;
2020/02/10 05:07:36;;;;;;;1.85;1;;;;;;;14.17;50.5918;93674.98;;;;
2020/02/10 05:08:38;;;;;;;1.85;1;;;;;;;14.17;50.5918;93674.98;;;;
2020/02/10 05:09:42;;;;;;;1.85;1;;;;;;;14.17;50.5918;93674.98;;;;
2020/02/10 05:10:43;;;;;;;1.85;1;;;;;;;14.17;50.5918;93674.98;;;;
2020/02/10 05:11:45;;;;;;;1.85;1;;;;;;;14.17;50.5918;93674.98;;;;
2020/02/10 05:12:45;;;;;;;1.85;1;;;;;;;14.17;50.5918;93674.98;;;;
2020/02/10 05:13:45;;;;;;;1.85;1;;;;;;;14.17;50.5918;93674.98;;;;
2020/02/10 05:14:46;;;;;;;1.85;1;;;;;;;14.17;50.5918;93674.98;;;;
2020/02/10 05:15:47;;;;;;;1.85;1;;;;;;;14.17;50.5918;93674.98;;;;
2020/02/10 05:16:48;;;;;;;1.2;1.1;;;;;;;14.19;50.1377;93689.06;;;;
2020/02/10 05:17:48;;;;;;;1.2;1.1;;;;;;;14.19;50.1377;93689.06;;;;
2020/02/10 05:18:49;;;;;;;1.2;1.1;;;;;;;14.19;50.1377;93689.06;;;;
2020/02/10 05:19:49;;;;;;;1.2;1.1;;;;;;;14.24;50.2627;93671.73;;;;
2020/02/10 05:20:50;;;;;;;1.2;1.1;;;;;;;14.24;50.2627;93671.73;;;;
2020/02/10 05:21:51;;;;;;;1.2;1.1;;;;;;;14.24;50.2627;93671.73;;;;
2020/02/10 05:22:51;;;;;;;1.2;1.1;;;;;;;14.24;50.2627;93671.73;;;;
2020/02/10 05:23:54;;;;;;;1.2;1.1;;;;;;;14.24;50.2627;93671.73;;;;
2020/02/10 05:24:55;;;;;;;1.2;1.1;;;;;;;14.24;50.2627;93671.73;;;;
2020/02/10 05:25:55;;;;;;;1.2;1.1;;;;;;;14.24;50.2627;93671.73;;;;
2020/02/10 05:26:58;;;;;;;1.2;1.1;;;;;;;14.24;50.2627;93671.73;;;;
2020/02/10 05:27:58;;;;;;;1.2;1.1;;;;;;;14.24;50.2627;93671.73;;;;
2020/02/10 05:29:00;;;;;;;1.2;1.1;;;;;;;14.24;50.2627;93671.73;;;;
2020/02/10 05:30:00;;;;;;;1.1;0.8;;;;;;;14.2;50.07227;93645.47;;;;
2020/02/10 05:31:02;;;;;;;1.1;0.8;;;;;;;14.2;50.07227;93645.47;;;;
2020/02/10 05:32:05;;;;;;;1.1;0.8;;;;;;;14.2;50.07227;93645.47;;;;
2020/02/10 05:33:05;;;;;;;1.5;1.05;;;;;;;14.23;50.3916;93650.32;;;;
2020/02/10 05:34:08;;;;;;;1.5;1.05;;;;;;;14.23;50.3916;93650.32;;;;
2020/02/10 05:35:08;;;;;;;1.5;1.05;;;;;;;14.23;50.3916;93650.32;;;;
2020/02/10 05:36:08;;;;;;;1.5;1.05;;;;;;;14.23;50.3916;93650.32;;;;
2020/02/10 05:37:15;;;;;;;1.5;1.05;;;;;;;14.23;50.3916;93650.32;;;;
2020/02/10 05:38:18;;;;;;;1.5;1.05;;;;;;;14.23;50.3916;93650.32;;;;
2020/02/10 05:39:24;;;;;;;1.5;1.05;;;;;;;14.23;50.3916;93650.32;;;;
2020/02/10 05:40:24;;;;;;;1.5;1.05;;;;;;;14.23;50.3916;93650.32;;;;
2020/02/10 05:41:25;;;;;;;1.5;1.05;;;;;;;14.23;50.3916;93650.32;;;;
2020/02/10 05:42:27;;;;;;;1.5;1.05;;;;;;;14.23;50.3916;93650.32;;;;
2020/02/10 05:43:27;;;;;;;1.5;0.9;;;;;;;14.18;50.74512;93645.76;;;;
2020/02/10 05:44:28;;;;;;;1.5;0.9;;;;;;;14.18;50.74512;93645.76;;;;
2020/02/10 05:45:28;;;;;;;1.5;0.9;;;;;;;14.18;50.74512;93645.76;;;;
2020/02/10 05:46:29;;;;;;;1.5;0.9;;;;;;;14.18;50.74512;93645.76;;;;
2020/02/10 05:47:29;;;;;;;1.5;0.9;;;;;;;14.18;50.74512;93645.76;;;;
2020/02/10 05:48:30;;;;;;;1.5;0.9;;;;;;;14.18;50.74512;93645.76;;;;
2020/02/10 05:49:30;;;;;;;1.5;0.9;;;;;;;14.18;50.74512;93645.76;;;;
2020/02/10 05:50:31;;;;;;;1.5;0.9;;;;;;;14.18;50.74512;93645.76;;;;
2020/02/10 05:51:31;;;;;;;1.5;0.9;;;;;;;14.18;50.74512;93645.76;;;;
2020/02/10 05:52:32;;;;;;;1.5;0.9;;;;;;;14.18;50.74512;93645.76;;;;
2020/02/10 05:53:33;;;;;;;1.5;0.9;;;;;;;14.18;50.74512;93645.76;;;;
2020/02/10 05:54:34;;;;;;;1.2;1.1;;;;;;;14.13;51.44531;93648.99;;;;
2020/02/10 05:55:35;;;;;;;1.2;1.1;;;;;;;14.13;51.44531;93648.99;;;;
2020/02/10 05:56:35;;;;;;;1.2;1.1;;;;;;;14.13;51.44531;93648.99;;;;
2020/02/10 05:57:36;;;;;;;1.2;1.1;;;;;;;14.13;51.44531;93648.99;;;;
2020/02/10 05:58:36;;;;;;;1.2;1.1;;;;;;;14.13;51.44531;93648.99;;;;
2020/02/10 05:59:37;;;;;;;1.2;1.1;;;;;;;14.13;51.44531;93648.99;;;;
2020/02/10 06:00:37;;;;;;;1.2;1.1;;;;;;;14.13;51.44531;93648.99;;;;
2020/02/10 06:01:38;;;;;;;1.2;1.1;;;;;;;14.13;51.44531;93648.99;;;;
2020/02/10 06:02:39;;;;;;;1.2;1.1;;;;;;;14.13;51.44531;93648.99;;;;
2020/02/10 06:03:39;;;;;;;1.2;1.1;;;;;;;14.13;51.44531;93648.99;;;;
2020/02/10 06:04:41;;;;;;;2.4;1;;;;;;;14.07;52.18848;93625.73;;;;
2020/02/10 06:05:41;;;;;;;2.4;1;;;;;;;14.07;52.18848;93625.73;;;;
2020/02/10 06:06:42;;;;;;;2.4;1;;;;;;;14.07;52.18848;93625.73;;;;
2020/02/10 06:07:43;;;;;;;2.4;1;;;;;;;14.07;52.18848;93625.73;;;;
2020/02/10 06:08:43;;;;;;;2.4;1;;;;;;;14.07;52.18848;93625.73;;;;
2020/02/10 06:09:44;;;;;;;2.4;1;;;;;;;14.07;52.18848;93625.73;;;;
2020/02/10 06:10:44;;;;;;;2.4;1;;;;;;;14.07;52.18848;93625.73;;;;
2020/02/10 06:11:45;;;;;;;2.4;1;;;;;;;14.07;52.18848;93625.73;;;;
2020/02/10 06:12:45;;;;;;;2.4;1;;;;;;;14.07;52.18848;93625.73;;;;
2020/02/10 06:13:46;;;;;;;2.4;1;;;;;;;14.07;52.18848;93625.73;;;;
2020/02/10 06:14:46;;;;;;;2.4;1;;;;;;;14.07;52.18848;93625.73;;;;
2020/02/10 06:15:47;;;;;;;1.8;1;;;;;;;14.22;52.42285;93667.69;;;;
2020/02/10 06:16:51;;;;;;;1.8;1;;;;;;;14.22;52.42285;93667.69;;;;
2020/02/10 06:17:52;;;;;;;1.8;1;;;;;;;14.22;52.42285;93667.69;;;;
2020/02/10 06:18:53;;;;;;;1.8;1;;;;;;;14.22;52.42285;93667.69;;;;
2020/02/10 06:19:55;;;;;;;1.8;1;;;;;;;14.22;52.42285;93667.69;;;;
2020/02/10 06:20:56;;;;;;;1.8;1;;;;;;;14.22;52.42285;93667.69;;;;
2020/02/10 06:21:56;;;;;;;1.8;1;;;;;;;14.22;52.42285;93667.69;;;;
2020/02/10 06:22:57;;;;;;;1.8;1;;;;;;;14.22;52.42285;93667.69;;;;
2020/02/10 06:23:58;;;;;;;1.8;1;;;;;;;14.22;52.42285;93667.69;;;;
2020/02/10 06:24:59;;;;;;;1.8;1;;;;;;;14.22;52.42285;93667.69;;;;
2020/02/10 06:25:59;;;;;;;1.6;1;;;;;;;14.36;51.74316;93661.36;;;;
2020/02/10 06:27:04;;;;;;;1.6;1;;;;;;;14.36;51.74316;93661.36;;;;
2020/02/10 06:28:37;;;;;;;1.6;1;;;;;;;14.36;51.74316;93661.36;;;;
2020/02/10 06:29:45;;;;;;;1.6;1;;;;;;;14.36;51.74316;93661.36;;;;
2020/02/10 06:30:53;;;;;;;1.6;1;;;;;;;14.36;51.74316;93661.36;;;;
2020/02/10 06:32:05;;;;;;;1.6;1;;;;;;;14.36;51.74316;93661.36;;;;
2020/02/10 06:33:17;;;;;;;1.6;1;;;;;;;14.36;51.74316;93661.36;;;;
2020/02/10 06:34:28;;;;;;;1.6;1;;;;;;;14.36;51.74316;93661.36;;;;
2020/02/10 06:41:06;;;;;;;3.9;1.25;;;;;;;14.45;51.58008;93675.87;;;;
2020/02/10 06:42:30;;;;;;;3.9;1.25;;;;;;;14.45;51.58008;93675.87;;;;
2020/02/10 06:44:09;;;;;;;3.9;1.25;;;;;;;14.45;51.58008;93675.87;;;;
2020/02/10 06:45:24;;;;;;;3.9;1.25;;;;;;;14.45;51.58008;93675.87;;;;
2020/02/10 06:46:30;;;;;;;3.9;1.25;;;;;;;14.45;51.58008;93675.87;;;;
2020/02/10 06:47:38;;;;;;;2.25;1;;;;;;;14.44;51.25293;93663.4;;;;
2020/02/10 06:48:47;;;;;;;2.25;1;;;;;;;14.44;51.25293;93663.4;;;;
2020/02/10 06:50:00;;;;;;;2.25;1;;;;;;;14.44;51.25293;93663.4;;;;
2020/02/10 06:51:10;;;;;;;2.25;1;;;;;;;14.44;51.25293;93663.4;;;;
2020/02/10 06:57:30;;;;;;;4.299999;1.1;;;;;;;14.48;51.0293;93717.8;;;;
2020/02/10 06:58:46;;;;;;;4.299999;1.1;;;;;;;14.48;51.0293;93717.8;;;;
2020/02/10 07:00:26;;;;;;;4.299999;1.1;;;;;;;14.48;51.0293;93717.8;;;;
2020/02/10 07:01:49;;;;;;;4.299999;1.1;;;;;;;14.48;51.0293;93717.8;;;;
2020/02/10 07:03:07;;;;;;;4.299999;1.1;;;;;;;14.48;51.0293;93717.8;;;;
2020/02/10 07:09:27;;;;;;;1.3;1;;;;;;;14.49;51.29102;93732.56;;;;
2020/02/10 07:10:56;;;;;;;1.3;1;;;;;;;14.49;51.29102;93732.56;;;;
2020/02/10 07:12:08;;;;;;;1.3;1;;;;;;;14.49;51.29102;93732.56;;;;
2020/02/10 07:13:23;;;;;;;1.3;1;;;;;;;14.49;51.29102;93732.56;;;;
2020/02/10 07:14:36;;;;;;;1.3;1;;;;;;;14.49;51.29102;93732.56;;;;
2020/02/10 07:15:46;;;;;;;1.3;1;;;;;;;14.49;51.29102;93732.56;;;;
2020/02/10 07:17:01;;;;;;;1.3;1;;;;;;;14.49;51.29102;93732.56;;;;
2020/02/10 07:18:11;;;;;;;1.3;1;;;;;;;14.49;51.29102;93732.56;;;;
2020/02/10 07:19:54;;;;;;;1.55;1;;;;;;;14.29;52.97363;93720.54;;;;
2020/02/10 07:21:07;;;;;;;1.55;1;;;;;;;14.29;52.97363;93720.54;;;;
2020/02/10 07:22:32;;;;;;;1.55;1;;;;;;;14.29;52.97363;93720.54;;;;
2020/02/10 07:24:45;;;;;;;1.55;1;;;;;;;14.29;52.97363;93720.54;;;;
2020/02/10 07:25:59;;;;;;;1.55;1;;;;;;;14.29;52.97363;93720.54;;;;
2020/02/10 07:27:16;;;;;;;1.55;1;;;;;;;14.29;52.97363;93720.54;;;;
2020/02/10 07:28:40;;;;;;;1.55;1;;;;;;;14.29;52.97363;93720.54;;;;
2020/02/10 07:30:22;;;;;;;1.95;0.9;;;;;;;14;54.30566;93749.33;;;;
2020/02/10 07:31:34;;;;;;;1.95;0.9;;;;;;;14;54.30566;93749.33;;;;
2020/02/10 07:32:41;;;;;;;1.95;0.9;;;;;;;14;54.30566;93749.33;;;;
2020/02/10 07:33:49;;;;;;;1.95;0.9;;;;;;;14;54.30566;93749.33;;;;
2020/02/10 07:35:35;;;;;;;1.95;0.9;;;;;;;14;54.30566;93749.33;;;;
2020/02/10 07:41:57;;;;;;;0.8;0.8;;;;;;;13.57;56.44336;93774.77;;;;
2020/02/10 07:43:35;;;;;;;0.8;0.8;;;;;;;13.57;56.44336;93774.77;;;;
2020/02/10 07:44:44;;;;;;;0.8;0.8;;;;;;;13.57;56.44336;93774.77;;;;
2020/02/10 07:45:53;;;;;;;0.8;0.8;;;;;;;13.57;56.44336;93774.77;;;;
2020/02/10 07:52:19;;;;;;;1.4;0.9;;;;;;;12.39;63.80078;93770.19;;;;
2020/02/10 07:53:45;;;;;;;1.4;0.9;;;;;;;12.39;63.80078;93770.19;;;;
2020/02/10 07:54:56;;;;;;;1.4;0.9;;;;;;;12.39;63.80078;93770.19;;;;
2020/02/10 07:56:09;;;;;;;1.4;0.9;;;;;;;12.39;63.80078;93770.19;;;;
2020/02/10 07:57:14;;;;;;;1.4;0.9;;;;;;;12.39;63.80078;93770.19;;;;
2020/02/10 08:03:44;;;;;;;0.95;0.95;;;;;;;11.67;68.48047;93733.12;;;;
2020/02/10 08:15:20;;;;;;;2.3;1.05;;;;;;;11.5;71.25781;93699.27;;;;
2020/02/10 08:21:48;;;;;;;2.3;1.05;;;;;;;11.5;71.25781;93699.27;;;;
2020/02/10 08:26:48;;;;;;;1.9;1;;;;;;;11.68;71.58789;93677.95;;;;
2020/02/10 08:29:02;;;;;;;1.9;1;;;;;;;11.68;71.58789;93677.95;;;;
2020/02/10 08:35:41;;;;;;;0.8;0.8;;;;;;;12.2;67.99414;93702;;;;
2020/02/10 08:42:19;;;;;;;0.8;0.8;;;;;;;12.2;67.99414;93702;;;;
2020/02/10 08:43:28;;;;;;;0.8;0.8;;;;;;;12.75;64.82422;93721.91;;;;